| Date | Time | Temp. (oF) | Dew Point (oF) | Rel. Hum. (%) | Press. (in.) | Wind Dir. | Wind Speed (mph) | Hourly Rainfall (in.) |
|
|---|---|---|---|---|---|---|---|---|---|
| 1 | 11/24 | 00:00 | 39 | 37 | 96 | 30.28 | NNE | 2 | 0.00 |
| 2 | 11/23 | 23:00 | 39 | 36 | 90 | 30.28 | NE | 2 | 0.00 |
| 3 | 11/23 | 22:00 | 41 | 37 | 86 | 30.28 | NE | 0 | 0.00 |
| 4 | 11/23 | 21:00 | 42 | 35 | 78 | 30.26 | ENE | 2 | 0.00 |
| 5 | 11/23 | 20:00 | 46 | 36 | 68 | 30.25 | ESE | 0 | 0.00 |
| 6 | 11/23 | 19:00 | 48 | 35 | 63 | 30.25 | ESE | 2 | 0.00 |
| 7 | 11/23 | 18:00 | 51 | 34 | 54 | 30.22 | E | 1 | 0.00 |
| 8 | 11/23 | 17:00 | 55 | 35 | 48 | 30.20 | SE | 2 | 0.00 |
| 9 | 11/23 | 16:00 | 58 | 35 | 43 | 30.18 | S | 3 | 0.00 |
| 10 | 11/23 | 15:00 | 59 | 33 | 39 | 30.16 | S | 9 | 0.00 |
| 11 | 11/23 | 14:00 | 61 | 35 | 39 | 30.17 | SE | 6 | 0.00 |
| 12 | 11/23 | 13:00 | 58 | 38 | 48 | 30.18 | ESE | 6 | 0.00 |
| 13 | 11/23 | 12:00 | 57 | 40 | 55 | 30.21 | SE | 4 | 0.00 |
| 14 | 11/23 | 11:00 | 50 | 42 | 74 | 30.24 | ESE | 1 | 0.00 |
| 15 | 11/23 | 10:00 | 44 | 38 | 82 | 30.24 | NE | 1 | 0.00 |
| 16 | 11/23 | 09:00 | 36 | 36 | 100 | 30.24 | ENE | 4 | 0.00 |
| 17 | 11/23 | 08:00 | 27 | 27 | 100 | 30.23 | NNE | 1 | 0.00 |
| 18 | 11/23 | 07:00 | 26 | 25 | 99 | 30.22 | S | 0 | 0.00 |
| 19 | 11/23 | 06:00 | 27 | 26 | 98 | 30.21 | NNE | 1 | 0.00 |
| 20 | 11/23 | 05:00 | 28 | 27 | 98 | 30.20 | N | 0 | 0.00 |
| 21 | 11/23 | 04:00 | 28 | 27 | 96 | 30.18 | N | 0 | 0.00 |
| 22 | 11/23 | 03:00 | 29 | 27 | 95 | 30.17 | N | 0 | 0.00 |
| 23 | 11/23 | 02:00 | 30 | 28 | 94 | 30.17 | N | 0 | 0.00 |
| 24 | 11/23 | 01:00 | 31 | 28 | 91 | 30.16 | N | 0 | 0.00 |